TAM9001 SBBR-SBGO
Flight info
| Callsign | TAM9001 |
|---|---|
| Flight time | 0h 22m |
| Altitude | 20000 |
| Route | SIREM |
| Aircraft | A321/M-SDE2FGHIM1RWXYZ/LB1 |
Departure
| Time | 2026-04-25 12:20 |
|---|---|
| Airport | Presidente Juscelino Kubitschek International Airport (SBBR) |
Arrival
| Time | 2026-04-25 12:42 |
|---|---|
| Airport | Santa Genoveva International Airport (SBGO) |
| Time | Latitude | Longitude | Altitude | Speed | Heading |
|---|---|---|---|---|---|
| 2026-04-25 12:04 | -15.86857 | -47.92691 | 3396 ft | 0 kts | 176° |
| 2026-04-25 12:13 | -15.86852 | -47.92692 | 3433 ft | 3 kts | 176° |
| 2026-04-25 12:13 | -15.86832 | -47.92693 | 3468 ft | 3 kts | 176° |
| 2026-04-25 12:14 | -15.86812 | -47.92695 | 3468 ft | 3 kts | 168° |
| 2026-04-25 12:14 | -15.86804 | -47.92691 | 3468 ft | 3 kts | 97° |
| 2026-04-25 12:14 | -15.86804 | -47.92704 | 3468 ft | 3 kts | 88° |
| 2026-04-25 12:14 | -15.86804 | -47.92719 | 3468 ft | 0 kts | 88° |
| 2026-04-25 12:16 | -15.86804 | -47.92716 | 3468 ft | 2 kts | 88° |
| 2026-04-25 12:16 | -15.86802 | -47.92673 | 3468 ft | 9 kts | 86° |
| 2026-04-25 12:17 | -15.86797 | -47.92593 | 3468 ft | 13 kts | 85° |
| 2026-04-25 12:17 | -15.86754 | -47.92510 | 3471 ft | 14 kts | 29° |
| 2026-04-25 12:17 | -15.86666 | -47.92460 | 3472 ft | 15 kts | 26° |
| 2026-04-25 12:17 | -15.86556 | -47.92400 | 3469 ft | 21 kts | 28° |
| 2026-04-25 12:18 | -15.86465 | -47.92290 | 3468 ft | 20 kts | 56° |
| 2026-04-25 12:18 | -15.86425 | -47.92226 | 3467 ft | 0 kts | 56° |
| 2026-04-25 12:19 | -15.86397 | -47.92184 | 3467 ft | 13 kts | 55° |
| 2026-04-25 12:19 | -15.86323 | -47.92103 | 3467 ft | 13 kts | 52° |
| 2026-04-25 12:20 | -15.86305 | -47.91909 | 3466 ft | 64 kts | 86° |
| 2026-04-25 12:20 | -15.86253 | -47.91109 | 3518 ft | 146 kts | 90° |
| 2026-04-25 12:20 | -15.86199 | -47.90050 | 4445 ft | 150 kts | 86° |
| 2026-04-25 12:20 | -15.86486 | -47.88957 | 5048 ft | 176 kts | 126° |
| 2026-04-25 12:21 | -15.87652 | -47.88342 | 5504 ft | 207 kts | 168° |
| 2026-04-25 12:21 | -15.89158 | -47.88108 | 5923 ft | 230 kts | 169° |
| 2026-04-25 12:21 | -15.90822 | -47.87809 | 6309 ft | 256 kts | 169° |
| 2026-04-25 12:21 | -15.92630 | -47.87452 | 6913 ft | 276 kts | 169° |
| 2026-04-25 12:22 | -15.94547 | -47.87058 | 7817 ft | 285 kts | 169° |
| 2026-04-25 12:22 | -15.96515 | -47.86643 | 8808 ft | 292 kts | 170° |
| 2026-04-25 12:22 | -15.98522 | -47.86219 | 9884 ft | 296 kts | 171° |
| 2026-04-25 12:22 | -16.00596 | -47.85808 | 10536 ft | 314 kts | 175° |
| 2026-04-25 12:23 | -16.02801 | -47.85962 | 11193 ft | 323 kts | 196° |
| 2026-04-25 12:23 | -16.04842 | -47.86937 | 12033 ft | 325 kts | 217° |
| 2026-04-25 12:23 | -16.06424 | -47.88613 | 12906 ft | 328 kts | 237° |
| 2026-04-25 12:23 | -16.07324 | -47.90796 | 13751 ft | 332 kts | 258° |
| 2026-04-25 12:24 | -16.07561 | -47.93170 | 14472 ft | 338 kts | 266° |
| 2026-04-25 12:24 | -16.07710 | -47.95627 | 15201 ft | 342 kts | 265° |
| 2026-04-25 12:24 | -16.08097 | -47.98080 | 15918 ft | 347 kts | 254° |
| 2026-04-25 12:24 | -16.08979 | -48.00452 | 16378 ft | 360 kts | 242° |
| 2026-04-25 12:25 | -16.10208 | -48.02769 | 16877 ft | 371 kts | 240° |
| 2026-04-25 12:25 | -16.11473 | -48.05133 | 17501 ft | 377 kts | 240° |
| 2026-04-25 12:25 | -16.12749 | -48.07530 | 18158 ft | 382 kts | 240° |
| 2026-04-25 12:25 | -16.14038 | -48.09963 | 18764 ft | 386 kts | 240° |
| 2026-04-25 12:26 | -16.15319 | -48.12387 | 19316 ft | 390 kts | 241° |
| 2026-04-25 12:26 | -16.16632 | -48.14881 | 19840 ft | 395 kts | 240° |
| 2026-04-25 12:26 | -16.17952 | -48.17399 | 20041 ft | 397 kts | 240° |
| 2026-04-25 12:26 | -16.19275 | -48.19921 | 20099 ft | 398 kts | 240° |
| 2026-04-25 12:27 | -16.20602 | -48.22453 | 20108 ft | 399 kts | 240° |
| 2026-04-25 12:27 | -16.21932 | -48.24991 | 20109 ft | 399 kts | 240° |
| 2026-04-25 12:27 | -16.23261 | -48.27523 | 20109 ft | 399 kts | 240° |
| 2026-04-25 12:27 | -16.24781 | -48.29932 | 20109 ft | 398 kts | 231° |
| 2026-04-25 12:28 | -16.26601 | -48.32049 | 20104 ft | 398 kts | 227° |
| 2026-04-25 12:28 | -16.28472 | -48.34177 | 20106 ft | 398 kts | 227° |
| 2026-04-25 12:28 | -16.30331 | -48.36310 | 20107 ft | 398 kts | 227° |
| 2026-04-25 12:28 | -16.32188 | -48.38447 | 20106 ft | 398 kts | 227° |
| 2026-04-25 12:29 | -16.34047 | -48.40588 | 20113 ft | 398 kts | 227° |
| 2026-04-25 12:29 | -16.35908 | -48.42727 | 20047 ft | 397 kts | 227° |
| 2026-04-25 12:29 | -16.37756 | -48.44842 | 19822 ft | 394 kts | 227° |
| 2026-04-25 12:29 | -16.39587 | -48.46938 | 19489 ft | 388 kts | 227° |
| 2026-04-25 12:30 | -16.41365 | -48.48971 | 18931 ft | 382 kts | 227° |
| 2026-04-25 12:30 | -16.43140 | -48.51001 | 18347 ft | 377 kts | 227° |
| 2026-04-25 12:30 | -16.44892 | -48.53007 | 17709 ft | 371 kts | 227° |
| 2026-04-25 12:30 | -16.46610 | -48.54973 | 17139 ft | 364 kts | 227° |
| 2026-04-25 12:31 | -16.48301 | -48.56912 | 16553 ft | 359 kts | 227° |
| 2026-04-25 12:31 | -16.49966 | -48.58826 | 15976 ft | 354 kts | 227° |
| 2026-04-25 12:31 | -16.51605 | -48.60712 | 15399 ft | 349 kts | 228° |
| 2026-04-25 12:31 | -16.53221 | -48.62578 | 14852 ft | 345 kts | 229° |
| 2026-04-25 12:32 | -16.54591 | -48.64606 | 14287 ft | 341 kts | 241° |
| 2026-04-25 12:32 | -16.55517 | -48.66830 | 13694 ft | 338 kts | 252° |
| 2026-04-25 12:32 | -16.56089 | -48.69185 | 13116 ft | 333 kts | 256° |
| 2026-04-25 12:32 | -16.56628 | -48.71517 | 12570 ft | 328 kts | 256° |
| 2026-04-25 12:33 | -16.57165 | -48.73813 | 12022 ft | 324 kts | 256° |
| 2026-04-25 12:33 | -16.57700 | -48.76086 | 11478 ft | 321 kts | 256° |
| 2026-04-25 12:33 | -16.58230 | -48.78332 | 10958 ft | 318 kts | 256° |
| 2026-04-25 12:33 | -16.58749 | -48.80538 | 10663 ft | 307 kts | 256° |
| 2026-04-25 12:34 | -16.59245 | -48.82646 | 10285 ft | 295 kts | 256° |
| 2026-04-25 12:34 | -16.59725 | -48.84698 | 10055 ft | 293 kts | 256° |
| 2026-04-25 12:34 | -16.60197 | -48.86708 | 9939 ft | 279 kts | 256° |
| 2026-04-25 12:34 | -16.60504 | -48.88017 | 9858 ft | 271 kts | 256° |
| 2026-04-25 12:35 | -16.61074 | -48.90471 | 9696 ft | 256 kts | 256° |
| 2026-04-25 12:35 | -16.61491 | -48.92257 | 9425 ft | 252 kts | 256° |
| 2026-04-25 12:35 | -16.61902 | -48.94027 | 9080 ft | 251 kts | 256° |
| 2026-04-25 12:35 | -16.62313 | -48.95795 | 8741 ft | 250 kts | 256° |
| 2026-04-25 12:36 | -16.62946 | -48.97492 | 8245 ft | 254 kts | 236° |
| 2026-04-25 12:36 | -16.64126 | -48.98781 | 7818 ft | 240 kts | 221° |
| 2026-04-25 12:36 | -16.65340 | -48.99892 | 7360 ft | 230 kts | 221° |
| 2026-04-25 12:36 | -16.66507 | -49.00950 | 7020 ft | 217 kts | 221° |
| 2026-04-25 12:37 | -16.67646 | -49.01981 | 6707 ft | 215 kts | 221° |
| 2026-04-25 12:37 | -16.68770 | -49.02998 | 6375 ft | 213 kts | 221° |
| 2026-04-25 12:37 | -16.69885 | -49.04007 | 6059 ft | 211 kts | 222° |
| 2026-04-25 12:37 | -16.70891 | -49.05107 | 5748 ft | 210 kts | 239° |
| 2026-04-25 12:38 | -16.71329 | -49.06514 | 5464 ft | 199 kts | 266° |
| 2026-04-25 12:38 | -16.71132 | -49.07891 | 5235 ft | 189 kts | 292° |
| 2026-04-25 12:38 | -16.70515 | -49.09064 | 4992 ft | 186 kts | 302° |
| 2026-04-25 12:38 | -16.69864 | -49.10217 | 4777 ft | 184 kts | 302° |
| 2026-04-25 12:39 | -16.69218 | -49.11368 | 4542 ft | 183 kts | 302° |
| 2026-04-25 12:39 | -16.68581 | -49.12499 | 4303 ft | 174 kts | 301° |
| 2026-04-25 12:39 | -16.67996 | -49.13545 | 4134 ft | 159 kts | 302° |
| 2026-04-25 12:39 | -16.67469 | -49.14489 | 3930 ft | 143 kts | 302° |
| 2026-04-25 12:40 | -16.66980 | -49.15362 | 3740 ft | 136 kts | 303° |
| 2026-04-25 12:40 | -16.66511 | -49.16205 | 3561 ft | 134 kts | 302° |
| 2026-04-25 12:40 | -16.66041 | -49.17046 | 3397 ft | 134 kts | 301° |
| 2026-04-25 12:40 | -16.65572 | -49.17884 | 3208 ft | 134 kts | 302° |
| 2026-04-25 12:41 | -16.65112 | -49.18704 | 3023 ft | 132 kts | 302° |
| 2026-04-25 12:41 | -16.64629 | -49.19524 | 2844 ft | 133 kts | 301° |
| 2026-04-25 12:41 | -16.64173 | -49.20362 | 2670 ft | 132 kts | 299° |
| 2026-04-25 12:41 | -16.63710 | -49.21195 | 2487 ft | 133 kts | 301° |
| 2026-04-25 12:42 | -16.63319 | -49.21896 | 2453 ft | 75 kts | 300° |
| 2026-04-25 12:42 | -16.63245 | -49.22028 | 2453 ft | 55 kts | 300° |
| 2026-04-25 12:42 | -16.62972 | -49.22497 | 2457 ft | 35 kts | 307° |
| 2026-04-25 12:42 | -16.62825 | -49.22622 | 2460 ft | 9 kts | 329° |
| 2026-04-25 12:43 | -16.62756 | -49.22657 | 2463 ft | 11 kts | 358° |
| 2026-04-25 12:43 | -16.62740 | -49.22585 | 2463 ft | 18 kts | 110° |
| 2026-04-25 12:43 | -16.62900 | -49.22299 | 2452 ft | 25 kts | 120° |
| 2026-04-25 12:44 | -16.62984 | -49.22129 | 2447 ft | 28 kts | 107° |
| 2026-04-25 12:44 | -16.62971 | -49.21908 | 2456 ft | 31 kts | 78° |
| 2026-04-25 12:44 | -16.62858 | -49.21637 | 2464 ft | 12 kts | 2° |
| 2026-04-25 12:45 | -16.62799 | -49.21629 | 2465 ft | 5 kts | 80° |
| 2026-04-25 12:45 | -16.62803 | -49.21588 | 2468 ft | 6 kts | 96° |
| 2026-04-25 12:45 | -16.62804 | -49.21565 | 2463 ft | 0 kts | 95° |